sensor_id;sensor_type;location;lat;lon;timestamp;P1;durP1;ratioP1;P2;durP2;ratioP2
25535;SDS011;13431;51.352;6.412;2022-09-21T00:01:24;7.13;;;5.50;;
25535;SDS011;13431;51.352;6.412;2022-09-21T00:03:57;8.38;;;6.22;;
25535;SDS011;13431;51.352;6.412;2022-09-21T00:06:27;9.80;;;5.72;;
25535;SDS011;13431;51.352;6.412;2022-09-21T00:08:56;6.78;;;6.07;;
25535;SDS011;13431;51.352;6.412;2022-09-21T00:11:27;8.60;;;5.90;;
25535;SDS011;13431;51.352;6.412;2022-09-21T00:13:57;14.77;;;6.15;;
25535;SDS011;13431;51.352;6.412;2022-09-21T00:16:28;6.93;;;6.00;;
25535;SDS011;13431;51.352;6.412;2022-09-21T00:18:57;9.48;;;5.82;;
25535;SDS011;13431;51.352;6.412;2022-09-21T00:21:26;8.43;;;5.95;;
25535;SDS011;13431;51.352;6.412;2022-09-21T00:23:57;9.18;;;6.45;;
25535;SDS011;13431;51.352;6.412;2022-09-21T00:26:25;6.65;;;5.78;;
25535;SDS011;13431;51.352;6.412;2022-09-21T00:28:55;9.95;;;6.63;;
25535;SDS011;13431;51.352;6.412;2022-09-21T00:31:24;9.82;;;6.53;;
25535;SDS011;13431;51.352;6.412;2022-09-21T00:33:52;7.85;;;6.50;;
25535;SDS011;13431;51.352;6.412;2022-09-21T00:36:21;8.80;;;7.00;;
25535;SDS011;13431;51.352;6.412;2022-09-21T00:38:59;10.65;;;5.80;;
25535;SDS011;13431;51.352;6.412;2022-09-21T00:41:28;8.93;;;6.50;;
25535;SDS011;13431;51.352;6.412;2022-09-21T00:47:00;10.85;;;6.38;;
25535;SDS011;13431;51.352;6.412;2022-09-21T00:49:32;7.32;;;6.43;;
25535;SDS011;13431;51.352;6.412;2022-09-21T00:52:01;9.27;;;6.30;;
25535;SDS011;13431;51.352;6.412;2022-09-21T00:54:33;9.32;;;6.35;;
25535;SDS011;13431;51.352;6.412;2022-09-21T00:57:06;6.93;;;5.93;;
25535;SDS011;13431;51.352;6.412;2022-09-21T00:59:34;12.65;;;5.97;;
25535;SDS011;13431;51.352;6.412;2022-09-21T01:02:04;6.30;;;5.63;;
25535;SDS011;13431;51.352;6.412;2022-09-21T01:04:31;6.65;;;5.45;;
25535;SDS011;13431;51.352;6.412;2022-09-21T01:07:04;9.90;;;6.05;;
25535;SDS011;13431;51.352;6.412;2022-09-21T01:09:38;8.32;;;5.93;;
25535;SDS011;13431;51.352;6.412;2022-09-21T01:18:39;6.97;;;5.72;;
25535;SDS011;13431;51.352;6.412;2022-09-21T01:26:58;6.60;;;5.38;;
25535;SDS011;13431;51.352;6.412;2022-09-21T01:29:19;7.00;;;5.88;;
25535;SDS011;13431;51.352;6.412;2022-09-21T01:31:56;7.45;;;6.03;;
25535;SDS011;13431;51.352;6.412;2022-09-21T01:34:27;8.05;;;5.68;;
25535;SDS011;13431;51.352;6.412;2022-09-21T01:37:03;8.35;;;6.50;;
25535;SDS011;13431;51.352;6.412;2022-09-21T01:39:35;7.45;;;5.55;;
25535;SDS011;13431;51.352;6.412;2022-09-21T01:42:05;9.77;;;5.90;;
25535;SDS011;13431;51.352;6.412;2022-09-21T01:44:34;5.38;;;4.65;;
25535;SDS011;13431;51.352;6.412;2022-09-21T01:47:06;6.25;;;5.65;;
25535;SDS011;13431;51.352;6.412;2022-09-21T01:49:37;5.85;;;5.25;;
25535;SDS011;13431;51.352;6.412;2022-09-21T01:52:13;6.18;;;5.20;;
25535;SDS011;13431;51.352;6.412;2022-09-21T01:54:53;7.00;;;5.90;;
25535;SDS011;13431;51.352;6.412;2022-09-21T01:58:43;7.53;;;5.10;;
25535;SDS011;13431;51.352;6.412;2022-09-21T02:00:56;7.45;;;5.50;;
25535;SDS011;13431;51.352;6.412;2022-09-21T02:03:28;8.32;;;5.18;;
25535;SDS011;13431;51.352;6.412;2022-09-21T02:06:01;6.22;;;5.70;;
25535;SDS011;13431;51.352;6.412;2022-09-21T02:08:30;8.77;;;5.60;;
25535;SDS011;13431;51.352;6.412;2022-09-21T02:11:02;8.65;;;6.05;;
25535;SDS011;13431;51.352;6.412;2022-09-21T02:13:35;8.25;;;5.25;;
25535;SDS011;13431;51.352;6.412;2022-09-21T02:21:48;6.60;;;5.30;;
25535;SDS011;13431;51.352;6.412;2022-09-21T02:24:48;6.43;;;5.38;;
25535;SDS011;13431;51.352;6.412;2022-09-21T02:30:36;6.15;;;5.55;;
25535;SDS011;13431;51.352;6.412;2022-09-21T02:33:21;7.10;;;5.90;;
25535;SDS011;13431;51.352;6.412;2022-09-21T02:36:07;6.95;;;5.72;;
25535;SDS011;13431;51.352;6.412;2022-09-21T02:39:03;6.68;;;5.90;;
25535;SDS011;13431;51.352;6.412;2022-09-21T02:45:04;8.10;;;5.95;;
25535;SDS011;13431;51.352;6.412;2022-09-21T02:47:35;8.80;;;5.80;;
25535;SDS011;13431;51.352;6.412;2022-09-21T02:50:20;10.60;;;5.78;;
25535;SDS011;13431;51.352;6.412;2022-09-21T02:52:51;6.78;;;5.47;;
25535;SDS011;13431;51.352;6.412;2022-09-21T02:55:21;9.80;;;5.53;;
25535;SDS011;13431;51.352;6.412;2022-09-21T02:57:49;6.30;;;5.45;;
25535;SDS011;13431;51.352;6.412;2022-09-21T03:00:20;8.73;;;6.07;;
25535;SDS011;13431;51.352;6.412;2022-09-21T03:02:47;6.95;;;5.65;;
25535;SDS011;13431;51.352;6.412;2022-09-21T03:05:14;7.28;;;6.07;;
25535;SDS011;13431;51.352;6.412;2022-09-21T03:07:42;6.53;;;5.68;;
25535;SDS011;13431;51.352;6.412;2022-09-21T03:10:09;6.18;;;5.50;;
25535;SDS011;13431;51.352;6.412;2022-09-21T03:12:36;7.18;;;6.10;;
25535;SDS011;13431;51.352;6.412;2022-09-21T03:15:04;7.80;;;5.82;;
25535;SDS011;13431;51.352;6.412;2022-09-21T03:17:31;11.75;;;6.40;;
25535;SDS011;13431;51.352;6.412;2022-09-21T03:19:59;6.55;;;5.95;;
25535;SDS011;13431;51.352;6.412;2022-09-21T03:22:27;9.15;;;5.82;;
25535;SDS011;13431;51.352;6.412;2022-09-21T03:24:54;7.85;;;5.72;;
25535;SDS011;13431;51.352;6.412;2022-09-21T03:27:23;7.78;;;5.90;;
25535;SDS011;13431;51.352;6.412;2022-09-21T03:29:50;7.63;;;5.95;;
25535;SDS011;13431;51.352;6.412;2022-09-21T03:32:18;5.63;;;5.10;;
25535;SDS011;13431;51.352;6.412;2022-09-21T03:34:45;7.88;;;6.25;;
25535;SDS011;13431;51.352;6.412;2022-09-21T03:37:12;7.45;;;6.00;;
25535;SDS011;13431;51.352;6.412;2022-09-21T03:39:40;5.93;;;5.32;;
25535;SDS011;13431;51.352;6.412;2022-09-21T03:42:07;9.18;;;6.30;;
25535;SDS011;13431;51.352;6.412;2022-09-21T03:44:40;8.73;;;6.30;;
25535;SDS011;13431;51.352;6.412;2022-09-21T03:47:07;7.28;;;6.32;;
25535;SDS011;13431;51.352;6.412;2022-09-21T03:49:35;7.40;;;6.57;;
25535;SDS011;13431;51.352;6.412;2022-09-21T03:52:02;10.07;;;6.93;;
25535;SDS011;13431;51.352;6.412;2022-09-21T03:54:30;9.70;;;6.95;;
25535;SDS011;13431;51.352;6.412;2022-09-21T03:56:58;7.32;;;6.60;;
25535;SDS011;13431;51.352;6.412;2022-09-21T03:59:25;7.97;;;6.70;;
25535;SDS011;13431;51.352;6.412;2022-09-21T04:01:52;7.70;;;6.45;;
25535;SDS011;13431;51.352;6.412;2022-09-21T04:04:20;7.22;;;6.63;;
25535;SDS011;13431;51.352;6.412;2022-09-21T04:06:47;10.00;;;6.88;;
25535;SDS011;13431;51.352;6.412;2022-09-21T04:09:15;8.57;;;6.70;;
25535;SDS011;13431;51.352;6.412;2022-09-21T04:11:43;10.10;;;6.82;;
25535;SDS011;13431;51.352;6.412;2022-09-21T04:14:11;10.35;;;7.20;;
25535;SDS011;13431;51.352;6.412;2022-09-21T04:16:39;8.70;;;7.78;;
25535;SDS011;13431;51.352;6.412;2022-09-21T04:19:06;9.38;;;7.57;;
25535;SDS011;13431;51.352;6.412;2022-09-21T04:21:33;7.45;;;6.38;;
25535;SDS011;13431;51.352;6.412;2022-09-21T04:24:01;7.72;;;6.97;;
25535;SDS011;13431;51.352;6.412;2022-09-21T04:26:31;13.38;;;7.03;;
25535;SDS011;13431;51.352;6.412;2022-09-21T04:29:00;12.40;;;7.30;;
25535;SDS011;13431;51.352;6.412;2022-09-21T04:31:28;10.73;;;7.70;;
25535;SDS011;13431;51.352;6.412;2022-09-21T04:33:56;9.38;;;6.78;;
25535;SDS011;13431;51.352;6.412;2022-09-21T04:36:24;8.15;;;6.43;;
25535;SDS011;13431;51.352;6.412;2022-09-21T04:39:01;6.80;;;6.13;;
25535;SDS011;13431;51.352;6.412;2022-09-21T04:41:29;7.72;;;6.47;;
25535;SDS011;13431;51.352;6.412;2022-09-21T04:43:56;9.65;;;7.28;;
25535;SDS011;13431;51.352;6.412;2022-09-21T04:46:24;9.98;;;7.30;;
25535;SDS011;13431;51.352;6.412;2022-09-21T04:48:52;7.22;;;6.50;;
25535;SDS011;13431;51.352;6.412;2022-09-21T04:51:19;7.40;;;6.60;;
25535;SDS011;13431;51.352;6.412;2022-09-21T04:53:47;10.45;;;6.90;;
25535;SDS011;13431;51.352;6.412;2022-09-21T04:56:17;11.65;;;7.35;;
25535;SDS011;13431;51.352;6.412;2022-09-21T04:58:48;7.85;;;6.57;;
25535;SDS011;13431;51.352;6.412;2022-09-21T05:01:15;6.95;;;6.13;;
25535;SDS011;13431;51.352;6.412;2022-09-21T05:03:43;8.52;;;6.78;;
25535;SDS011;13431;51.352;6.412;2022-09-21T05:06:11;7.20;;;6.50;;
25535;SDS011;13431;51.352;6.412;2022-09-21T05:08:39;8.82;;;7.20;;
25535;SDS011;13431;51.352;6.412;2022-09-21T05:11:25;8.75;;;7.13;;
25535;SDS011;13431;51.352;6.412;2022-09-21T05:13:53;7.20;;;6.50;;
25535;SDS011;13431;51.352;6.412;2022-09-21T05:16:24;9.48;;;6.57;;
25535;SDS011;13431;51.352;6.412;2022-09-21T05:18:52;8.25;;;6.65;;
25535;SDS011;13431;51.352;6.412;2022-09-21T05:21:22;9.43;;;6.90;;
25535;SDS011;13431;51.352;6.412;2022-09-21T05:23:49;11.15;;;7.40;;
25535;SDS011;13431;51.352;6.412;2022-09-21T05:26:18;11.70;;;7.80;;
25535;SDS011;13431;51.352;6.412;2022-09-21T05:28:45;9.57;;;6.38;;
25535;SDS011;13431;51.352;6.412;2022-09-21T05:33:49;8.65;;;6.28;;
25535;SDS011;13431;51.352;6.412;2022-09-21T05:39:05;11.27;;;7.72;;
25535;SDS011;13431;51.352;6.412;2022-09-21T05:41:33;12.35;;;7.95;;
25535;SDS011;13431;51.352;6.412;2022-09-21T05:44:01;8.90;;;8.00;;
25535;SDS011;13431;51.352;6.412;2022-09-21T05:46:34;8.35;;;7.32;;
25535;SDS011;13431;51.352;6.412;2022-09-21T06:05:28;10.07;;;7.43;;
25535;SDS011;13431;51.352;6.412;2022-09-21T06:07:55;11.98;;;8.10;;
25535;SDS011;13431;51.352;6.412;2022-09-21T06:10:23;11.93;;;8.23;;
25535;SDS011;13431;51.352;6.412;2022-09-21T06:12:50;8.48;;;6.93;;
25535;SDS011;13431;51.352;6.412;2022-09-21T06:15:18;8.00;;;7.18;;
25535;SDS011;13431;51.352;6.412;2022-09-21T06:17:45;9.88;;;7.03;;
25535;SDS011;13431;51.352;6.412;2022-09-21T06:20:12;13.82;;;7.43;;
25535;SDS011;13431;51.352;6.412;2022-09-21T06:22:40;18.80;;;8.48;;
25535;SDS011;13431;51.352;6.412;2022-09-21T06:25:07;17.48;;;8.98;;
25535;SDS011;13431;51.352;6.412;2022-09-21T06:27:35;13.23;;;8.45;;
25535;SDS011;13431;51.352;6.412;2022-09-21T06:30:02;14.23;;;8.80;;
25535;SDS011;13431;51.352;6.412;2022-09-21T06:32:30;13.93;;;8.80;;
25535;SDS011;13431;51.352;6.412;2022-09-21T06:34:57;12.70;;;8.95;;
25535;SDS011;13431;51.352;6.412;2022-09-21T06:37:24;9.30;;;8.07;;
25535;SDS011;13431;51.352;6.412;2022-09-21T06:39:51;12.25;;;8.23;;
25535;SDS011;13431;51.352;6.412;2022-09-21T06:42:19;9.85;;;8.73;;
25535;SDS011;13431;51.352;6.412;2022-09-21T06:44:46;14.80;;;8.95;;
25535;SDS011;13431;51.352;6.412;2022-09-21T06:47:18;12.75;;;9.23;;
25535;SDS011;13431;51.352;6.412;2022-09-21T06:49:46;9.65;;;8.60;;
25535;SDS011;13431;51.352;6.412;2022-09-21T06:52:13;10.13;;;9.07;;
25535;SDS011;13431;51.352;6.412;2022-09-21T06:54:40;15.85;;;8.55;;
25535;SDS011;13431;51.352;6.412;2022-09-21T06:57:08;10.70;;;8.05;;
25535;SDS011;13431;51.352;6.412;2022-09-21T06:59:35;8.88;;;7.90;;
25535;SDS011;13431;51.352;6.412;2022-09-21T07:02:02;17.08;;;8.27;;
25535;SDS011;13431;51.352;6.412;2022-09-21T07:04:30;12.32;;;7.75;;
25535;SDS011;13431;51.352;6.412;2022-09-21T07:06:57;11.60;;;8.25;;
25535;SDS011;13431;51.352;6.412;2022-09-21T07:09:30;12.25;;;8.68;;
25535;SDS011;13431;51.352;6.412;2022-09-21T07:12:17;9.35;;;8.35;;
25535;SDS011;13431;51.352;6.412;2022-09-21T07:14:48;10.63;;;8.32;;
25535;SDS011;13431;51.352;6.412;2022-09-21T07:17:15;10.82;;;9.70;;
25535;SDS011;13431;51.352;6.412;2022-09-21T07:19:42;15.60;;;9.50;;
25535;SDS011;13431;51.352;6.412;2022-09-21T07:22:09;8.80;;;7.93;;
25535;SDS011;13431;51.352;6.412;2022-09-21T07:24:37;11.20;;;7.30;;
25535;SDS011;13431;51.352;6.412;2022-09-21T07:27:04;9.68;;;7.75;;
25535;SDS011;13431;51.352;6.412;2022-09-21T07:29:31;11.80;;;7.63;;
25535;SDS011;13431;51.352;6.412;2022-09-21T07:31:59;9.93;;;7.30;;
25535;SDS011;13431;51.352;6.412;2022-09-21T07:34:26;7.93;;;6.72;;
25535;SDS011;13431;51.352;6.412;2022-09-21T07:36:53;9.50;;;7.50;;
25535;SDS011;13431;51.352;6.412;2022-09-21T07:39:21;10.27;;;7.80;;
25535;SDS011;13431;51.352;6.412;2022-09-21T07:41:48;13.70;;;8.30;;
25535;SDS011;13431;51.352;6.412;2022-09-21T07:44:15;13.57;;;8.27;;
25535;SDS011;13431;51.352;6.412;2022-09-21T07:46:42;11.20;;;8.15;;
25535;SDS011;13431;51.352;6.412;2022-09-21T07:49:14;10.00;;;7.72;;
25535;SDS011;13431;51.352;6.412;2022-09-21T07:51:41;10.90;;;8.60;;
25535;SDS011;13431;51.352;6.412;2022-09-21T07:54:09;11.10;;;8.18;;
25535;SDS011;13431;51.352;6.412;2022-09-21T07:56:36;8.88;;;7.05;;
25535;SDS011;13431;51.352;6.412;2022-09-21T07:59:05;9.05;;;6.88;;
25535;SDS011;13431;51.352;6.412;2022-09-21T08:01:33;7.30;;;6.40;;
25535;SDS011;13431;51.352;6.412;2022-09-21T08:04:02;9.52;;;6.93;;
25535;SDS011;13431;51.352;6.412;2022-09-21T08:06:31;6.35;;;5.75;;
25535;SDS011;13431;51.352;6.412;2022-09-21T08:09:02;6.38;;;5.78;;
25535;SDS011;13431;51.352;6.412;2022-09-21T08:11:30;6.72;;;6.03;;
25535;SDS011;13431;51.352;6.412;2022-09-21T08:14:00;7.88;;;5.82;;
25535;SDS011;13431;51.352;6.412;2022-09-21T08:16:29;9.52;;;5.05;;
25535;SDS011;13431;51.352;6.412;2022-09-21T08:18:57;7.78;;;6.53;;
25535;SDS011;13431;51.352;6.412;2022-09-21T08:21:25;6.78;;;5.57;;
25535;SDS011;13431;51.352;6.412;2022-09-21T08:23:52;8.32;;;5.72;;
25535;SDS011;13431;51.352;6.412;2022-09-21T08:26:19;7.20;;;6.05;;
25535;SDS011;13431;51.352;6.412;2022-09-21T08:28:49;8.90;;;6.40;;
25535;SDS011;13431;51.352;6.412;2022-09-21T08:31:18;9.95;;;6.30;;
25535;SDS011;13431;51.352;6.412;2022-09-21T08:33:47;9.75;;;6.88;;
25535;SDS011;13431;51.352;6.412;2022-09-21T08:36:16;10.73;;;6.50;;
25535;SDS011;13431;51.352;6.412;2022-09-21T08:38:44;9.02;;;6.60;;
25535;SDS011;13431;51.352;6.412;2022-09-21T08:41:58;10.40;;;6.88;;
25535;SDS011;13431;51.352;6.412;2022-09-21T08:44:23;7.78;;;6.88;;
25535;SDS011;13431;51.352;6.412;2022-09-21T08:47:00;11.70;;;7.03;;
25535;SDS011;13431;51.352;6.412;2022-09-21T08:49:38;7.57;;;6.25;;
25535;SDS011;13431;51.352;6.412;2022-09-21T08:52:10;6.05;;;5.32;;
25535;SDS011;13431;51.352;6.412;2022-09-21T08:54:46;9.82;;;6.78;;
25535;SDS011;13431;51.352;6.412;2022-09-21T08:57:19;10.70;;;6.72;;
25535;SDS011;13431;51.352;6.412;2022-09-21T08:59:48;9.77;;;7.40;;
25535;SDS011;13431;51.352;6.412;2022-09-21T09:05:03;10.95;;;7.10;;
25535;SDS011;13431;51.352;6.412;2022-09-21T09:13:28;11.50;;;7.65;;
25535;SDS011;13431;51.352;6.412;2022-09-21T09:19:18;10.63;;;7.80;;
25535;SDS011;13431;51.352;6.412;2022-09-21T09:21:54;11.70;;;8.70;;
25535;SDS011;13431;51.352;6.412;2022-09-21T09:26:54;10.02;;;7.63;;
25535;SDS011;13431;51.352;6.412;2022-09-21T09:31:57;11.23;;;7.87;;
25535;SDS011;13431;51.352;6.412;2022-09-21T09:34:34;13.45;;;8.13;;
25535;SDS011;13431;51.352;6.412;2022-09-21T09:37:11;11.43;;;6.90;;
25535;SDS011;13431;51.352;6.412;2022-09-21T09:39:47;7.72;;;6.38;;
25535;SDS011;13431;51.352;6.412;2022-09-21T09:48:14;8.23;;;6.13;;
25535;SDS011;13431;51.352;6.412;2022-09-21T09:50:58;9.65;;;6.03;;
25535;SDS011;13431;51.352;6.412;2022-09-21T09:53:25;6.85;;;5.88;;
25535;SDS011;13431;51.352;6.412;2022-09-21T09:55:53;8.05;;;6.18;;
25535;SDS011;13431;51.352;6.412;2022-09-21T09:58:27;7.95;;;5.03;;
25535;SDS011;13431;51.352;6.412;2022-09-21T10:04:12;7.75;;;5.97;;
25535;SDS011;13431;51.352;6.412;2022-09-21T10:06:43;4.80;;;4.20;;
25535;SDS011;13431;51.352;6.412;2022-09-21T10:09:26;6.07;;;3.60;;
25535;SDS011;13431;51.352;6.412;2022-09-21T10:11:58;6.57;;;3.95;;
25535;SDS011;13431;51.352;6.412;2022-09-21T10:14:46;9.25;;;5.00;;
25535;SDS011;13431;51.352;6.412;2022-09-21T10:17:16;5.55;;;3.55;;
25535;SDS011;13431;51.352;6.412;2022-09-21T10:19:44;5.30;;;2.45;;
25535;SDS011;13431;51.352;6.412;2022-09-21T10:22:14;3.88;;;2.67;;
25535;SDS011;13431;51.352;6.412;2022-09-21T10:24:48;2.90;;;2.25;;
25535;SDS011;13431;51.352;6.412;2022-09-21T10:27:21;6.10;;;3.42;;
25535;SDS011;13431;51.352;6.412;2022-09-21T10:30:00;6.80;;;3.60;;
25535;SDS011;13431;51.352;6.412;2022-09-21T10:32:27;5.65;;;3.55;;
25535;SDS011;13431;51.352;6.412;2022-09-21T10:35:29;4.95;;;2.53;;
25535;SDS011;13431;51.352;6.412;2022-09-21T10:37:48;5.50;;;3.05;;
25535;SDS011;13431;51.352;6.412;2022-09-21T10:40:48;4.82;;;2.75;;
25535;SDS011;13431;51.352;6.412;2022-09-21T10:46:03;5.63;;;3.05;;
25535;SDS011;13431;51.352;6.412;2022-09-21T10:48:30;4.13;;;3.17;;
25535;SDS011;13431;51.352;6.412;2022-09-21T10:50:58;7.32;;;3.03;;
25535;SDS011;13431;51.352;6.412;2022-09-21T10:53:29;5.15;;;3.22;;
25535;SDS011;13431;51.352;6.412;2022-09-21T11:01:51;6.15;;;3.03;;
25535;SDS011;13431;51.352;6.412;2022-09-21T11:07:16;5.82;;;3.25;;
25535;SDS011;13431;51.352;6.412;2022-09-21T11:10:05;5.63;;;2.83;;
25535;SDS011;13431;51.352;6.412;2022-09-21T11:12:52;5.20;;;2.63;;
25535;SDS011;13431;51.352;6.412;2022-09-21T11:18:20;9.13;;;2.70;;
25535;SDS011;13431;51.352;6.412;2022-09-21T11:26:52;5.57;;;2.53;;
25535;SDS011;13431;51.352;6.412;2022-09-21T11:29:57;5.15;;;2.60;;
25535;SDS011;13431;51.352;6.412;2022-09-21T11:32:35;5.03;;;2.65;;
25535;SDS011;13431;51.352;6.412;2022-09-21T11:35:34;4.95;;;2.45;;
25535;SDS011;13431;51.352;6.412;2022-09-21T11:51:39;3.05;;;2.00;;
25535;SDS011;13431;51.352;6.412;2022-09-21T11:54:42;3.35;;;2.05;;
25535;SDS011;13431;51.352;6.412;2022-09-21T12:06:20;4.97;;;2.50;;
25535;SDS011;13431;51.352;6.412;2022-09-21T12:09:07;5.32;;;2.25;;
25535;SDS011;13431;51.352;6.412;2022-09-21T12:11:53;4.13;;;2.67;;
25535;SDS011;13431;51.352;6.412;2022-09-21T12:19:57;3.67;;;1.63;;
25535;SDS011;13431;51.352;6.412;2022-09-21T12:22:43;4.80;;;1.80;;
25535;SDS011;13431;51.352;6.412;2022-09-21T12:25:14;3.92;;;1.77;;
25535;SDS011;13431;51.352;6.412;2022-09-21T12:28:11;4.05;;;1.77;;
25535;SDS011;13431;51.352;6.412;2022-09-21T12:31:05;3.50;;;1.70;;
25535;SDS011;13431;51.352;6.412;2022-09-21T12:34:01;4.20;;;2.05;;
25535;SDS011;13431;51.352;6.412;2022-09-21T12:36:34;3.30;;;1.83;;
25535;SDS011;13431;51.352;6.412;2022-09-21T12:39:16;4.70;;;1.88;;
25535;SDS011;13431;51.352;6.412;2022-09-21T12:41:51;3.85;;;2.00;;
25535;SDS011;13431;51.352;6.412;2022-09-21T12:50:26;3.45;;;2.08;;
25535;SDS011;13431;51.352;6.412;2022-09-21T12:53:03;2.13;;;1.63;;
25535;SDS011;13431;51.352;6.412;2022-09-21T13:01:04;13.15;;;2.22;;
25535;SDS011;13431;51.352;6.412;2022-09-21T13:06:55;1.48;;;1.20;;
25535;SDS011;13431;51.352;6.412;2022-09-21T13:09:28;3.03;;;1.50;;
25535;SDS011;13431;51.352;6.412;2022-09-21T13:11:58;3.22;;;1.52;;
25535;SDS011;13431;51.352;6.412;2022-09-21T13:14:30;3.17;;;1.95;;
25535;SDS011;13431;51.352;6.412;2022-09-21T13:17:02;5.90;;;2.00;;
25535;SDS011;13431;51.352;6.412;2022-09-21T13:19:32;6.07;;;2.53;;
25535;SDS011;13431;51.352;6.412;2022-09-21T13:24:56;4.60;;;2.08;;
25535;SDS011;13431;51.352;6.412;2022-09-21T13:30:46;7.55;;;2.55;;
25535;SDS011;13431;51.352;6.412;2022-09-21T13:46:49;1.98;;;1.60;;
25535;SDS011;13431;51.352;6.412;2022-09-21T13:49:22;5.70;;;1.95;;
25535;SDS011;13431;51.352;6.412;2022-09-21T13:52:07;2.00;;;1.42;;
25535;SDS011;13431;51.352;6.412;2022-09-21T13:54:53;3.75;;;1.73;;
25535;SDS011;13431;51.352;6.412;2022-09-21T13:57:31;1.73;;;1.33;;
25535;SDS011;13431;51.352;6.412;2022-09-21T14:10:52;2.22;;;1.30;;
25535;SDS011;13431;51.352;6.412;2022-09-21T14:18:55;2.35;;;1.00;;
25535;SDS011;13431;51.352;6.412;2022-09-21T14:21:22;4.38;;;1.75;;
25535;SDS011;13431;51.352;6.412;2022-09-21T14:26:34;4.10;;;1.60;;
25535;SDS011;13431;51.352;6.412;2022-09-21T14:29:28;2.53;;;1.55;;
25535;SDS011;13431;51.352;6.412;2022-09-21T14:32:17;1.08;;;0.98;;
25535;SDS011;13431;51.352;6.412;2022-09-21T14:34:51;2.17;;;1.20;;
25535;SDS011;13431;51.352;6.412;2022-09-21T14:40:18;1.50;;;1.38;;
25535;SDS011;13431;51.352;6.412;2022-09-21T14:42:52;3.45;;;1.52;;
25535;SDS011;13431;51.352;6.412;2022-09-21T14:45:25;1.92;;;1.35;;
25535;SDS011;13431;51.352;6.412;2022-09-21T14:48:18;1.80;;;1.65;;
25535;SDS011;13431;51.352;6.412;2022-09-21T14:51:00;1.73;;;1.48;;
25535;SDS011;13431;51.352;6.412;2022-09-21T15:02:20;1.92;;;1.50;;
25535;SDS011;13431;51.352;6.412;2022-09-21T15:04:56;2.72;;;1.42;;
25535;SDS011;13431;51.352;6.412;2022-09-21T15:14:12;2.63;;;1.55;;
25535;SDS011;13431;51.352;6.412;2022-09-21T15:16:49;4.63;;;1.83;;
25535;SDS011;13431;51.352;6.412;2022-09-21T15:21:45;2.40;;;1.42;;
25535;SDS011;13431;51.352;6.412;2022-09-21T15:24:17;3.55;;;1.40;;
25535;SDS011;13431;51.352;6.412;2022-09-21T15:26:54;2.72;;;1.58;;
25535;SDS011;13431;51.352;6.412;2022-09-21T15:29:33;2.20;;;1.52;;
25535;SDS011;13431;51.352;6.412;2022-09-21T15:32:00;4.07;;;1.98;;
25535;SDS011;13431;51.352;6.412;2022-09-21T15:34:28;4.70;;;2.00;;
25535;SDS011;13431;51.352;6.412;2022-09-21T15:37:04;3.78;;;2.22;;
25535;SDS011;13431;51.352;6.412;2022-09-21T15:39:34;7.13;;;2.30;;
25535;SDS011;13431;51.352;6.412;2022-09-21T15:42:17;4.10;;;2.33;;
25535;SDS011;13431;51.352;6.412;2022-09-21T15:44:48;5.72;;;3.17;;
25535;SDS011;13431;51.352;6.412;2022-09-21T15:47:20;4.88;;;2.42;;
25535;SDS011;13431;51.352;6.412;2022-09-21T15:49:48;6.45;;;2.20;;
25535;SDS011;13431;51.352;6.412;2022-09-21T15:52:27;4.18;;;2.30;;
25535;SDS011;13431;51.352;6.412;2022-09-21T15:55:00;6.15;;;2.28;;
25535;SDS011;13431;51.352;6.412;2022-09-21T15:57:36;4.07;;;2.63;;
25535;SDS011;13431;51.352;6.412;2022-09-21T16:00:16;4.30;;;1.90;;
25535;SDS011;13431;51.352;6.412;2022-09-21T16:02:56;6.00;;;1.77;;
25535;SDS011;13431;51.352;6.412;2022-09-21T16:08:18;7.18;;;2.45;;
25535;SDS011;13431;51.352;6.412;2022-09-21T16:11:09;5.00;;;2.00;;
25535;SDS011;13431;51.352;6.412;2022-09-21T16:13:40;7.97;;;1.95;;
25535;SDS011;13431;51.352;6.412;2022-09-21T16:16:27;5.90;;;1.85;;
25535;SDS011;13431;51.352;6.412;2022-09-21T16:18:54;6.25;;;2.25;;
25535;SDS011;13431;51.352;6.412;2022-09-21T16:21:26;3.67;;;1.67;;
25535;SDS011;13431;51.352;6.412;2022-09-21T16:24:17;7.68;;;2.30;;
25535;SDS011;13431;51.352;6.412;2022-09-21T16:26:58;4.85;;;1.80;;
25535;SDS011;13431;51.352;6.412;2022-09-21T16:29:38;5.47;;;2.15;;
25535;SDS011;13431;51.352;6.412;2022-09-21T16:34:45;3.60;;;1.45;;
25535;SDS011;13431;51.352;6.412;2022-09-21T16:39:50;2.80;;;1.88;;
25535;SDS011;13431;51.352;6.412;2022-09-21T16:42:20;6.20;;;2.22;;
25535;SDS011;13431;51.352;6.412;2022-09-21T16:44:49;3.03;;;1.95;;
25535;SDS011;13431;51.352;6.412;2022-09-21T16:47:17;4.70;;;2.05;;
25535;SDS011;13431;51.352;6.412;2022-09-21T16:49:51;4.75;;;1.90;;
25535;SDS011;13431;51.352;6.412;2022-09-21T16:52:21;4.75;;;2.17;;
25535;SDS011;13431;51.352;6.412;2022-09-21T16:54:49;3.70;;;1.98;;
25535;SDS011;13431;51.352;6.412;2022-09-21T16:57:17;3.35;;;1.83;;
25535;SDS011;13431;51.352;6.412;2022-09-21T16:59:44;4.40;;;1.98;;
25535;SDS011;13431;51.352;6.412;2022-09-21T17:02:12;4.03;;;2.15;;
25535;SDS011;13431;51.352;6.412;2022-09-21T17:04:40;5.07;;;1.92;;
25535;SDS011;13431;51.352;6.412;2022-09-21T17:07:11;5.32;;;1.90;;
25535;SDS011;13431;51.352;6.412;2022-09-21T17:09:40;4.78;;;1.95;;
25535;SDS011;13431;51.352;6.412;2022-09-21T17:12:10;3.90;;;2.00;;
25535;SDS011;13431;51.352;6.412;2022-09-21T17:14:39;5.78;;;2.00;;
25535;SDS011;13431;51.352;6.412;2022-09-21T17:17:17;6.95;;;2.67;;
25535;SDS011;13431;51.352;6.412;2022-09-21T17:19:47;6.13;;;2.28;;
25535;SDS011;13431;51.352;6.412;2022-09-21T17:22:16;5.00;;;2.63;;
25535;SDS011;13431;51.352;6.412;2022-09-21T17:24:44;6.93;;;2.47;;
25535;SDS011;13431;51.352;6.412;2022-09-21T17:27:21;7.28;;;2.90;;
25535;SDS011;13431;51.352;6.412;2022-09-21T17:29:52;9.00;;;3.50;;
25535;SDS011;13431;51.352;6.412;2022-09-21T17:32:21;6.72;;;2.80;;
25535;SDS011;13431;51.352;6.412;2022-09-21T17:34:54;6.35;;;2.30;;
25535;SDS011;13431;51.352;6.412;2022-09-21T17:37:38;4.50;;;2.58;;
25535;SDS011;13431;51.352;6.412;2022-09-21T17:40:05;7.95;;;2.83;;
25535;SDS011;13431;51.352;6.412;2022-09-21T17:42:37;5.30;;;2.92;;
25535;SDS011;13431;51.352;6.412;2022-09-21T17:47:40;5.90;;;4.10;;
25535;SDS011;13431;51.352;6.412;2022-09-21T17:52:39;5.28;;;3.67;;
25535;SDS011;13431;51.352;6.412;2022-09-21T17:55:26;6.00;;;3.57;;
25535;SDS011;13431;51.352;6.412;2022-09-21T18:00:52;6.15;;;3.20;;
25535;SDS011;13431;51.352;6.412;2022-09-21T18:03:30;5.97;;;4.15;;
25535;SDS011;13431;51.352;6.412;2022-09-21T18:06:01;9.38;;;5.45;;
25535;SDS011;13431;51.352;6.412;2022-09-21T18:08:30;18.20;;;11.48;;
25535;SDS011;13431;51.352;6.412;2022-09-21T18:11:16;12.05;;;7.15;;
25535;SDS011;13431;51.352;6.412;2022-09-21T18:25:13;6.60;;;4.22;;
25535;SDS011;13431;51.352;6.412;2022-09-21T18:27:46;5.03;;;3.63;;
25535;SDS011;13431;51.352;6.412;2022-09-21T18:30:16;7.47;;;4.22;;
25535;SDS011;13431;51.352;6.412;2022-09-21T18:35:53;6.45;;;4.03;;
25535;SDS011;13431;51.352;6.412;2022-09-21T18:38:29;7.53;;;4.28;;
25535;SDS011;13431;51.352;6.412;2022-09-21T18:46:18;7.25;;;4.15;;
25535;SDS011;13431;51.352;6.412;2022-09-21T18:54:57;8.48;;;4.38;;
25535;SDS011;13431;51.352;6.412;2022-09-21T18:57:25;10.07;;;4.00;;
25535;SDS011;13431;51.352;6.412;2022-09-21T18:59:58;6.00;;;4.03;;
25535;SDS011;13431;51.352;6.412;2022-09-21T19:02:25;6.70;;;5.97;;
25535;SDS011;13431;51.352;6.412;2022-09-21T19:04:54;8.88;;;6.53;;
25535;SDS011;13431;51.352;6.412;2022-09-21T19:07:26;7.03;;;5.95;;
25535;SDS011;13431;51.352;6.412;2022-09-21T19:10:08;8.98;;;5.72;;
25535;SDS011;13431;51.352;6.412;2022-09-21T19:12:54;8.43;;;4.88;;
25535;SDS011;13431;51.352;6.412;2022-09-21T19:18:59;8.98;;;4.70;;
25535;SDS011;13431;51.352;6.412;2022-09-21T19:30:09;10.43;;;5.72;;